Time;durP1;ratioP1;P1;durP2;ratioP2;P2;SDS_P1;SDS_P2;PMS_P1;PMS_P2;Temp;Humidity;BMP_temperature;BMP_pressure;BME280_temperature;BME280_humidity;BME280_pressure;Samples;Min_cycle;Max_cycle;Signal;HPM_P1;HPM_P2
2023/01/06 00:01:26;;;;;;;22.02;9.23;;;10.70;99.90;;;;;;5085463;28;20043;-62
2023/01/06 00:03:53;;;;;;;21.00;9.93;;;10.70;99.90;;;;;;5087188;28;20047;-62
2023/01/06 00:06:26;;;;;;;20.55;9.70;;;10.90;99.90;;;;;;5084951;28;20079;-60
2023/01/06 00:08:56;;;;;;;16.23;9.20;;;10.80;99.90;;;;;;5086337;28;20045;-62
2023/01/06 00:11:22;;;;;;;18.63;9.57;;;10.70;99.90;;;;;;5087521;28;20092;-60
2023/01/06 00:13:48;;;;;;;18.60;10.13;;;10.80;99.90;;;;;;5082211;28;20036;-61
2023/01/06 00:16:16;;;;;;;16.88;9.95;;;10.80;99.90;;;;;;5089672;28;20455;-62
2023/01/06 00:18:41;;;;;;;16.63;9.57;;;10.80;99.90;;;;;;5061434;28;20064;-60
2023/01/06 00:21:09;;;;;;;21.13;10.32;;;10.90;99.90;;;;;;5088396;28;20078;-61
2023/01/06 00:23:36;;;;;;;15.55;9.80;;;10.70;99.90;;;;;;5082724;28;20123;-61
2023/01/06 00:26:03;;;;;;;16.63;9.73;;;10.90;99.90;;;;;;5086312;28;20040;-62
2023/01/06 00:28:29;;;;;;;12.05;8.63;;;10.70;99.90;;;;;;5086472;28;20032;-61
2023/01/06 00:30:57;;;;;;;13.95;8.68;;;10.90;99.90;;;;;;5089948;28;20045;-62
2023/01/06 00:33:23;;;;;;;14.05;8.65;;;10.90;99.90;;;;;;5096633;28;20040;-61
2023/01/06 00:35:49;;;;;;;12.63;8.30;;;11.00;99.90;;;;;;5095790;28;20036;-63
2023/01/06 00:38:14;;;;;;;10.90;7.72;;;10.80;99.90;;;;;;5087717;28;20036;-61
2023/01/06 00:40:40;;;;;;;11.27;7.82;;;10.80;99.90;;;;;;5076514;28;20511;-61
2023/01/06 00:43:06;;;;;;;9.85;7.38;;;10.90;99.90;;;;;;5077228;28;20100;-61
2023/01/06 00:45:31;;;;;;;11.30;7.68;;;10.70;99.90;;;;;;5101488;28;20032;-60
2023/01/06 00:47:57;;;;;;;13.60;7.90;;;10.60;99.90;;;;;;5106347;28;20036;-61
2023/01/06 00:50:23;;;;;;;16.52;8.43;;;10.70;99.90;;;;;;5084326;28;20126;-63
2023/01/06 00:52:52;;;;;;;13.63;8.68;;;10.70;99.90;;;;;;5095694;28;20099;-63
2023/01/06 00:55:18;;;;;;;16.27;9.65;;;10.70;99.90;;;;;;5090285;28;20044;-61
2023/01/06 00:57:43;;;;;;;13.18;8.95;;;10.60;99.90;;;;;;5103517;28;20537;-63
2023/01/06 01:00:10;;;;;;;14.05;8.80;;;10.70;99.90;;;;;;5089823;28;20329;-61
2023/01/06 01:02:35;;;;;;;14.98;8.32;;;10.70;99.90;;;;;;5090856;28;20117;-62
2023/01/06 01:05:01;;;;;;;14.55;8.27;;;10.70;99.90;;;;;;5090903;28;20086;-62
2023/01/06 01:07:27;;;;;;;16.02;8.30;;;10.70;99.90;;;;;;5089506;28;20036;-61
2023/01/06 01:09:52;;;;;;;13.30;7.60;;;10.70;99.90;;;;;;5075665;28;20274;-61
2023/01/06 01:12:18;;;;;;;9.32;6.95;;;10.70;99.90;;;;;;5089413;28;20051;-61
2023/01/06 01:14:51;;;;;;;12.30;7.38;;;10.60;99.90;;;;;;5100730;28;20032;-63
2023/01/06 01:17:20;;;;;;;13.03;7.40;;;10.70;99.90;;;;;;5071145;28;20120;-61
2023/01/06 01:19:47;;;;;;;11.73;7.15;;;10.60;99.90;;;;;;5109276;28;20039;-62
2023/01/06 01:22:13;;;;;;;10.07;6.43;;;10.70;99.90;;;;;;5086189;28;20537;-62
2023/01/06 01:24:39;;;;;;;17.13;7.47;;;10.70;99.90;;;;;;5095078;28;20032;-62
2023/01/06 01:27:08;;;;;;;12.55;5.90;;;10.60;99.90;;;;;;5088799;28;20036;-63
2023/01/06 01:29:37;;;;;;;12.43;6.45;;;10.70;99.90;;;;;;5105825;28;20056;-62
2023/01/06 01:32:03;;;;;;;11.73;5.50;;;10.60;99.90;;;;;;5094041;28;20055;-63
2023/01/06 01:34:29;;;;;;;12.55;5.47;;;10.70;99.90;;;;;;5096638;28;20071;-63
2023/01/06 01:36:55;;;;;;;11.05;5.30;;;10.70;99.90;;;;;;5099528;28;20531;-61
2023/01/06 01:39:23;;;;;;;13.05;5.68;;;10.60;99.90;;;;;;5103689;28;20036;-62
2023/01/06 01:41:53;;;;;;;9.85;5.13;;;10.70;99.90;;;;;;5101208;28;20035;-61
2023/01/06 01:44:54;;;;;;;9.80;4.72;;;10.60;99.90;;;;;;5104464;28;20031;-61
2023/01/06 01:47:25;;;;;;;10.02;4.78;;;10.50;99.90;;;;;;5084816;28;20107;-61
2023/01/06 01:49:55;;;;;;;10.70;5.22;;;10.60;99.90;;;;;;5093635;28;20040;-62
2023/01/06 01:52:27;;;;;;;9.68;5.30;;;10.50;99.90;;;;;;5093409;28;20040;-62
2023/01/06 01:54:54;;;;;;;14.45;5.45;;;10.60;99.90;;;;;;5093623;28;20040;-61
2023/01/06 01:57:35;;;;;;;9.90;5.40;;;10.60;99.90;;;;;;5086287;28;20393;-60
2023/01/06 02:00:04;;;;;;;12.77;5.63;;;10.60;99.90;;;;;;5085255;28;20036;-61
2023/01/06 02:02:31;;;;;;;8.23;4.30;;;10.60;99.90;;;;;;5071924;28;20429;-60
2023/01/06 02:04:56;;;;;;;8.50;4.60;;;10.60;99.90;;;;;;5090305;28;20387;-60
2023/01/06 02:07:25;;;;;;;7.97;4.00;;;10.50;99.90;;;;;;5105822;28;20182;-60
2023/01/06 02:10:11;;;;;;;11.88;4.65;;;10.50;99.90;;;;;;5098810;28;20063;-61
2023/01/06 02:12:38;;;;;;;8.57;3.97;;;10.60;99.90;;;;;;5086338;28;20054;-61
2023/01/06 02:15:14;;;;;;;11.38;4.35;;;10.50;99.90;;;;;;5090407;28;20028;-61
2023/01/06 02:18:07;;;;;;;9.23;4.15;;;10.60;99.90;;;;;;5086534;28;20131;-61
2023/01/06 02:20:35;;;;;;;7.80;3.88;;;10.60;99.90;;;;;;5090458;28;20104;-62
2023/01/06 02:23:34;;;;;;;8.15;4.28;;;10.50;99.90;;;;;;5100085;28;20051;-62
2023/01/06 02:26:18;;;;;;;8.73;4.57;;;10.60;99.90;;;;;;5092297;28;20024;-59
2023/01/06 02:29:28;;;;;;;8.23;4.35;;;10.70;99.90;;;;;;5089508;28;20168;-62
2023/01/06 02:32:25;;;;;;;8.77;5.15;;;10.60;99.90;;;;;;5068547;28;20452;-61
2023/01/06 02:35:22;;;;;;;8.38;4.90;;;10.60;99.90;;;;;;5068668;28;20072;-63
2023/01/06 02:38:03;;;;;;;8.45;5.18;;;10.60;99.90;;;;;;5074283;28;20075;-62
2023/01/06 02:41:06;;;;;;;8.68;5.20;;;10.60;99.90;;;;;;5076293;28;20079;-61
2023/01/06 02:43:48;;;;;;;10.90;5.00;;;10.70;99.90;;;;;;5087974;28;20050;-62
2023/01/06 02:46:30;;;;;;;7.75;5.10;;;10.60;99.90;;;;;;5072201;28;20041;-62
2023/01/06 02:49:07;;;;;;;8.27;5.28;;;10.60;99.90;;;;;;5080299;28;20040;-59
2023/01/06 02:51:43;;;;;;;8.82;4.88;;;10.60;99.90;;;;;;5077287;28;20090;-63
2023/01/06 02:54:25;;;;;;;7.60;5.00;;;10.70;99.90;;;;;;5070347;28;20052;-64
2023/01/06 02:57:05;;;;;;;9.10;5.45;;;10.70;99.90;;;;;;5077373;28;20033;-60
2023/01/06 02:59:35;;;;;;;9.45;5.50;;;10.60;99.90;;;;;;5069354;28;20508;-60
2023/01/06 03:02:02;;;;;;;8.80;5.45;;;10.60;99.90;;;;;;5073736;28;20106;-62
2023/01/06 03:04:38;;;;;;;8.60;5.20;;;10.70;99.90;;;;;;5076039;28;20116;-62
2023/01/06 03:07:05;;;;;;;7.88;5.70;;;10.70;99.90;;;;;;5067929;28;20036;-63
2023/01/06 03:09:36;;;;;;;8.88;5.93;;;10.70;99.90;;;;;;5070542;28;20063;-62
2023/01/06 03:12:18;;;;;;;7.90;6.47;;;10.70;99.90;;;;;;5058123;28;20111;-61
2023/01/06 03:14:48;;;;;;;9.55;5.57;;;10.60;99.90;;;;;;5068960;28;20063;-63
2023/01/06 03:17:14;;;;;;;8.80;5.60;;;10.60;99.90;;;;;;5065107;28;20066;-62
2023/01/06 03:19:40;;;;;;;8.18;5.85;;;10.70;99.90;;;;;;5067087;28;20036;-62
2023/01/06 03:22:07;;;;;;;9.50;5.82;;;10.60;99.90;;;;;;5083147;28;20356;-62
2023/01/06 03:24:35;;;;;;;7.95;5.70;;;10.60;99.90;;;;;;5077746;28;20028;-64
2023/01/06 03:27:02;;;;;;;9.30;5.47;;;10.50;99.90;;;;;;5066052;28;20065;-63
2023/01/06 03:29:36;;;;;;;8.25;5.10;;;10.60;99.90;;;;;;5066645;28;20087;-66
2023/01/06 03:32:17;;;;;;;7.25;4.68;;;10.60;99.90;;;;;;5093049;28;20051;-63
2023/01/06 03:35:30;;;;;;;6.45;4.75;;;10.60;99.90;;;;;;5083038;28;20040;-64
2023/01/06 03:38:46;;;;;;;7.90;4.28;;;10.60;99.90;;;;;;5089290;28;20088;-62
2023/01/06 03:44:43;;;;;;;7.18;3.90;;;10.60;99.90;;;;;;5089846;28;20050;-63
2023/01/06 03:47:24;;;;;;;7.00;3.90;;;10.60;99.90;;;;;;5086803;28;20032;-62
2023/01/06 03:50:08;;;;;;;7.35;3.85;;;10.60;99.90;;;;;;5089707;28;20089;-63
2023/01/06 03:52:41;;;;;;;4.72;3.30;;;10.70;99.90;;;;;;5085295;28;20050;-62
2023/01/06 03:55:13;;;;;;;5.90;3.80;;;10.70;99.90;;;;;;5082696;28;20060;-62
2023/01/06 03:57:43;;;;;;;6.70;3.70;;;10.60;99.90;;;;;;5082825;28;20090;-61
2023/01/06 04:00:19;;;;;;;6.90;3.75;;;10.60;99.90;;;;;;5094262;28;20127;-62
2023/01/06 04:02:45;;;;;;;9.15;4.03;;;10.70;99.90;;;;;;5099939;28;20451;-62
2023/01/06 04:05:20;;;;;;;7.03;3.63;;;10.70;99.90;;;;;;5095294;28;20071;-64
2023/01/06 04:07:46;;;;;;;9.02;3.53;;;10.60;99.90;;;;;;5093314;28;20051;-62
2023/01/06 04:10:14;;;;;;;7.55;3.40;;;10.60;99.90;;;;;;5091385;28;20349;-63
2023/01/06 04:12:40;;;;;;;5.80;3.40;;;10.60;99.90;;;;;;5102735;28;20035;-61
2023/01/06 04:15:25;;;;;;;5.22;3.20;;;10.60;99.90;;;;;;5066396;28;20044;-62
2023/01/06 04:17:51;;;;;;;6.50;3.42;;;10.60;99.90;;;;;;5074681;28;20096;-63
2023/01/06 04:20:22;;;;;;;5.75;3.45;;;10.60;99.90;;;;;;5094887;28;20035;-62
2023/01/06 04:22:48;;;;;;;5.50;3.70;;;10.70;99.90;;;;;;5094295;28;20032;-62
2023/01/06 04:25:13;;;;;;;6.32;4.35;;;10.60;99.90;;;;;;5087643;28;20032;-62
2023/01/06 04:27:39;;;;;;;8.40;4.82;;;10.60;99.90;;;;;;5101321;28;20052;-62
2023/01/06 04:30:12;;;;;;;7.72;5.18;;;10.60;99.90;;;;;;5104450;28;20138;-60
2023/01/06 04:32:37;;;;;;;8.48;5.35;;;10.60;99.90;;;;;;5085213;28;20047;-62
2023/01/06 04:35:03;;;;;;;6.55;5.30;;;10.60;99.90;;;;;;5095492;28;20040;-63
2023/01/06 04:37:29;;;;;;;6.93;5.45;;;10.60;99.90;;;;;;5100389;28;20039;-62
2023/01/06 04:39:54;;;;;;;8.48;5.85;;;10.60;99.90;;;;;;5080149;28;20090;-60
2023/01/06 04:42:20;;;;;;;8.00;5.18;;;10.60;99.90;;;;;;5106090;28;20046;-63
2023/01/06 04:44:47;;;;;;;8.02;5.32;;;10.60;99.90;;;;;;5098563;28;20044;-62
2023/01/06 04:47:12;;;;;;;6.72;4.85;;;10.60;99.90;;;;;;5082708;28;20078;-63
2023/01/06 04:49:38;;;;;;;7.22;4.45;;;10.60;99.90;;;;;;5086277;28;20063;-64
2023/01/06 04:52:04;;;;;;;5.95;3.95;;;10.70;99.90;;;;;;5092907;28;20044;-62
2023/01/06 04:54:31;;;;;;;6.43;3.30;;;10.60;99.90;;;;;;5085471;28;20040;-62
2023/01/06 04:57:00;;;;;;;5.38;3.20;;;10.70;99.90;;;;;;5066173;28;20044;-62
2023/01/06 04:59:25;;;;;;;5.70;3.25;;;10.70;99.90;;;;;;5098465;28;20181;-62
2023/01/06 05:01:51;;;;;;;6.60;3.15;;;10.70;99.90;;;;;;5091762;28;20119;-61
2023/01/06 05:04:16;;;;;;;5.63;2.78;;;10.70;99.90;;;;;;5095176;28;20154;-63
2023/01/06 05:06:42;;;;;;;5.22;2.50;;;10.70;99.90;;;;;;5092136;28;20043;-61
2023/01/06 05:09:08;;;;;;;4.32;2.38;;;10.80;99.90;;;;;;5098449;28;20062;-61
2023/01/06 05:11:33;;;;;;;3.75;2.38;;;10.70;99.90;;;;;;5097219;28;20032;-64
2023/01/06 05:13:59;;;;;;;4.13;2.15;;;10.70;99.90;;;;;;5075329;28;20052;-63
2023/01/06 05:16:27;;;;;;;5.13;2.55;;;10.70;99.90;;;;;;5085528;28;20045;-62
2023/01/06 05:18:53;;;;;;;7.53;2.58;;;10.80;99.90;;;;;;5095603;28;20044;-62
2023/01/06 05:21:20;;;;;;;6.22;2.53;;;10.80;99.90;;;;;;5089858;28;20355;-61
2023/01/06 05:23:45;;;;;;;5.97;3.00;;;10.80;99.90;;;;;;5073584;28;20040;-62
2023/01/06 05:26:37;;;;;;;5.03;3.30;;;10.80;99.90;;;;;;5092742;28;20123;-62
2023/01/06 05:29:03;;;;;;;7.90;3.22;;;10.80;99.90;;;;;;5084613;28;20143;-64
2023/01/06 05:31:33;;;;;;;5.38;3.13;;;10.80;99.90;;;;;;5064877;28;20128;-62
2023/01/06 05:33:58;;;;;;;6.13;3.45;;;10.80;99.90;;;;;;5068160;28;20024;-62
2023/01/06 05:36:24;;;;;;;5.90;3.90;;;10.80;99.90;;;;;;5066215;28;20449;-60
2023/01/06 05:38:53;;;;;;;6.45;3.45;;;10.80;99.90;;;;;;5072721;28;20048;-60
2023/01/06 05:41:24;;;;;;;4.63;3.35;;;10.80;99.90;;;;;;5070368;28;20032;-62
2023/01/06 05:43:49;;;;;;;5.65;3.60;;;10.90;99.90;;;;;;5053188;28;20067;-60
2023/01/06 05:46:15;;;;;;;4.75;3.55;;;10.70;99.90;;;;;;5067032;28;20044;-62
2023/01/06 05:48:41;;;;;;;8.43;4.20;;;10.70;99.90;;;;;;5066415;28;20071;-63
2023/01/06 05:51:10;;;;;;;4.90;3.45;;;10.70;99.90;;;;;;5063650;28;20186;-59
2023/01/06 05:53:37;;;;;;;4.90;3.70;;;10.70;99.90;;;;;;5064383;28;20037;-63
2023/01/06 05:56:06;;;;;;;6.20;3.70;;;10.70;99.90;;;;;;5072407;28;20044;-62
2023/01/06 05:58:32;;;;;;;4.97;3.83;;;10.80;99.90;;;;;;5073722;28;20131;-62
2023/01/06 06:00:58;;;;;;;8.27;4.20;;;10.70;99.90;;;;;;5071897;28;20115;-62
2023/01/06 06:03:24;;;;;;;6.25;4.32;;;10.80;99.90;;;;;;5054057;28;20036;-59
2023/01/06 06:05:50;;;;;;;6.88;4.40;;;10.70;99.90;;;;;;5071867;28;20063;-62
2023/01/06 06:08:21;;;;;;;5.60;4.00;;;10.80;99.90;;;;;;5074486;28;20045;-62
2023/01/06 06:10:46;;;;;;;6.22;4.03;;;10.70;99.90;;;;;;5051868;28;20045;-61
2023/01/06 06:13:12;;;;;;;5.53;3.95;;;10.70;99.90;;;;;;5071966;28;20310;-63
2023/01/06 06:15:37;;;;;;;5.97;3.92;;;10.70;99.90;;;;;;5072162;28;20361;-61
2023/01/06 06:18:03;;;;;;;6.60;4.53;;;10.70;99.90;;;;;;5053326;28;20299;-62
2023/01/06 06:20:29;;;;;;;6.80;4.55;;;10.70;99.90;;;;;;5069101;28;20028;-60
2023/01/06 06:22:54;;;;;;;8.75;4.60;;;10.60;99.90;;;;;;5071152;28;20037;-60
2023/01/06 06:25:20;;;;;;;5.53;4.47;;;10.60;99.90;;;;;;5064043;28;20408;-60
2023/01/06 06:27:45;;;;;;;6.53;4.65;;;10.60;99.90;;;;;;5073208;28;20046;-60
2023/01/06 06:30:18;;;;;;;5.72;4.95;;;10.50;99.90;;;;;;5068209;28;20072;-61
2023/01/06 06:32:44;;;;;;;6.90;5.35;;;10.60;99.90;;;;;;5070381;28;20449;-61
2023/01/06 06:35:09;;;;;;;6.10;5.32;;;10.40;99.90;;;;;;5066269;28;20071;-61
2023/01/06 06:37:35;;;;;;;7.40;5.70;;;10.40;99.90;;;;;;5068034;28;20454;-59
2023/01/06 06:40:00;;;;;;;10.15;6.03;;;10.30;99.90;;;;;;5069711;28;20334;-59
2023/01/06 06:42:26;;;;;;;7.47;5.80;;;10.30;99.90;;;;;;5067578;28;20098;-60
2023/01/06 06:44:51;;;;;;;7.68;5.70;;;10.40;99.90;;;;;;5066026;28;20451;-62
2023/01/06 06:47:17;;;;;;;6.65;5.95;;;10.20;99.90;;;;;;5066662;28;20052;-60
2023/01/06 06:49:42;;;;;;;8.23;6.00;;;10.20;99.90;;;;;;5066156;28;20085;-62
2023/01/06 06:52:08;;;;;;;8.10;6.70;;;10.30;99.90;;;;;;5073497;28;20059;-62
2023/01/06 06:54:33;;;;;;;7.18;6.43;;;10.10;99.90;;;;;;5065249;28;20043;-62
2023/01/06 06:56:59;;;;;;;9.13;7.03;;;10.20;99.90;;;;;;5067792;28;20036;-60
2023/01/06 06:59:24;;;;;;;7.07;5.80;;;10.20;99.90;;;;;;5070968;28;20043;-61
2023/01/06 07:01:50;;;;;;;6.88;6.18;;;10.30;99.90;;;;;;5069863;28;20029;-61
2023/01/06 07:04:15;;;;;;;7.70;6.20;;;10.30;99.90;;;;;;5070232;28;20052;-61
2023/01/06 07:06:41;;;;;;;7.00;5.80;;;10.20;99.90;;;;;;5068489;28;20043;-59
2023/01/06 07:09:06;;;;;;;6.72;5.85;;;10.40;99.90;;;;;;5071639;28;20381;-61
2023/01/06 07:11:32;;;;;;;8.68;6.00;;;10.30;99.90;;;;;;5068138;28;20041;-60
2023/01/06 07:13:58;;;;;;;6.88;5.30;;;10.40;99.90;;;;;;5072922;28;20473;-60
2023/01/06 07:16:25;;;;;;;6.22;5.57;;;10.30;99.90;;;;;;5070246;28;20044;-62
2023/01/06 07:18:51;;;;;;;6.13;5.53;;;10.40;99.90;;;;;;5069817;28;20041;-59
2023/01/06 07:21:17;;;;;;;6.03;5.15;;;10.30;99.90;;;;;;5071710;28;20051;-61
2023/01/06 07:23:42;;;;;;;5.53;4.60;;;10.40;99.90;;;;;;5055638;28;20033;-60
2023/01/06 07:26:10;;;;;;;6.20;4.80;;;10.40;99.90;;;;;;5072296;28;20037;-61
2023/01/06 07:28:36;;;;;;;6.65;5.07;;;10.40;99.90;;;;;;5071463;28;20040;-62
2023/01/06 07:31:15;;;;;;;5.18;3.97;;;10.40;99.90;;;;;;5093958;28;20113;-60
2023/01/06 07:33:42;;;;;;;4.75;4.20;;;10.50;99.90;;;;;;5064929;28;20110;-60
2023/01/06 07:36:17;;;;;;;4.93;3.65;;;10.40;99.90;;;;;;5093799;28;20436;-61
2023/01/06 07:38:42;;;;;;;4.30;3.67;;;10.40;99.90;;;;;;5087784;28;20452;-61
2023/01/06 07:41:08;;;;;;;5.15;4.22;;;10.40;99.90;;;;;;5086952;28;20036;-60
2023/01/06 07:43:33;;;;;;;5.18;3.30;;;10.40;99.90;;;;;;5087613;28;20471;-62
2023/01/06 07:45:59;;;;;;;4.93;3.40;;;10.50;99.90;;;;;;5091189;28;20044;-61
2023/01/06 07:48:25;;;;;;;6.25;3.22;;;10.40;99.90;;;;;;5085107;28;20040;-61
2023/01/06 07:50:50;;;;;;;5.88;3.10;;;10.40;99.90;;;;;;5097744;28;20071;-61
2023/01/06 07:53:16;;;;;;;3.95;2.53;;;10.40;99.90;;;;;;5093522;28;20039;-61
2023/01/06 07:55:48;;;;;;;5.57;3.13;;;10.30;99.90;;;;;;5094987;28;20762;-61
2023/01/06 07:58:14;;;;;;;6.40;3.00;;;10.40;99.90;;;;;;5093190;28;20050;-60
2023/01/06 08:00:39;;;;;;;6.05;2.85;;;10.40;99.90;;;;;;5098746;28;20036;-61
2023/01/06 08:03:06;;;;;;;8.35;2.97;;;10.40;99.90;;;;;;5105753;28;20054;-61
2023/01/06 08:05:32;;;;;;;6.25;2.42;;;10.30;99.90;;;;;;5097226;28;20372;-61
2023/01/06 08:07:58;;;;;;;5.95;2.60;;;10.40;99.90;;;;;;5090670;28;20491;-62
2023/01/06 08:10:23;;;;;;;9.10;2.55;;;10.30;99.90;;;;;;5083828;28;20072;-61
2023/01/06 08:12:49;;;;;;;9.88;2.30;;;10.30;99.90;;;;;;5089683;28;20464;-62
2023/01/06 08:15:14;;;;;;;9.63;2.22;;;10.10;99.90;;;;;;5097150;28;20040;-62
2023/01/06 08:17:40;;;;;;;5.55;1.98;;;10.10;99.90;;;;;;5083812;28;20028;-62
2023/01/06 08:20:06;;;;;;;14.02;3.55;;;10.10;99.90;;;;;;5099349;28;20052;-63
2023/01/06 08:22:38;;;;;;;9.23;2.90;;;10.00;99.90;;;;;;5096373;28;20127;-64
2023/01/06 08:25:03;;;;;;;6.47;2.20;;;10.00;99.90;;;;;;5084717;28;20411;-63
2023/01/06 08:27:29;;;;;;;11.43;3.25;;;9.90;99.90;;;;;;5100524;28;20027;-62
2023/01/06 08:29:56;;;;;;;8.52;2.40;;;9.80;99.90;;;;;;5089420;28;20052;-60
2023/01/06 08:32:21;;;;;;;9.90;2.78;;;9.80;99.90;;;;;;5088948;28;20064;-64
2023/01/06 08:34:47;;;;;;;9.07;2.50;;;9.80;99.90;;;;;;5094890;28;20364;-63
2023/01/06 08:37:13;;;;;;;14.05;4.10;;;9.60;99.90;;;;;;5098882;28;20079;-64
2023/01/06 08:39:39;;;;;;;9.93;3.88;;;9.70;99.90;;;;;;5098415;28;20456;-63
2023/01/06 08:42:04;;;;;;;18.25;4.80;;;9.60;99.90;;;;;;5094937;28;20520;-62
2023/01/06 08:44:31;;;;;;;23.15;6.15;;;9.70;99.90;;;;;;5097477;28;20044;-63
2023/01/06 08:47:02;;;;;;;12.38;4.18;;;9.70;99.90;;;;;;5087176;28;20094;-62
2023/01/06 08:49:27;;;;;;;14.57;4.07;;;9.70;99.90;;;;;;5102972;28;20044;-62
2023/01/06 08:51:53;;;;;;;17.98;5.75;;;9.70;99.90;;;;;;5088693;28;20063;-63
2023/01/06 08:54:18;;;;;;;14.85;4.60;;;9.70;99.90;;;;;;5094999;28;20041;-62
2023/01/06 08:56:44;;;;;;;12.38;4.10;;;9.70;99.90;;;;;;5090325;28;20342;-64
2023/01/06 08:59:16;;;;;;;12.30;3.40;;;9.70;99.90;;;;;;5099709;28;20032;-62
2023/01/06 09:01:42;;;;;;;14.63;4.57;;;9.70;99.90;;;;;;5097668;28;20024;-62
2023/01/06 09:04:09;;;;;;;10.48;2.60;;;9.70;99.90;;;;;;5089828;28;20115;-63
2023/01/06 09:06:35;;;;;;;11.05;3.22;;;9.70;99.90;;;;;;5093112;28;20036;-64
2023/01/06 09:09:05;;;;;;;12.07;3.80;;;9.70;99.90;;;;;;5105221;28;20043;-62
2023/01/06 09:11:31;;;;;;;10.98;4.15;;;9.70;99.90;;;;;;5088356;28;20098;-62
2023/01/06 09:13:56;;;;;;;14.77;4.70;;;9.70;99.90;;;;;;5071224;28;20041;-60
2023/01/06 09:16:22;;;;;;;12.65;4.10;;;9.70;99.90;;;;;;5090146;28;20477;-60
2023/01/06 09:18:49;;;;;;;11.57;3.20;;;9.60;99.90;;;;;;5087715;28;20406;-61
2023/01/06 09:21:16;;;;;;;13.80;4.28;;;9.70;99.90;;;;;;5099317;28;20032;-62
2023/01/06 09:23:43;;;;;;;13.75;4.25;;;9.60;99.90;;;;;;5088918;28;20453;-61
2023/01/06 09:26:15;;;;;;;9.57;3.45;;;9.60;99.90;;;;;;5094319;28;20424;-59
2023/01/06 09:28:41;;;;;;;10.93;3.85;;;9.70;99.90;;;;;;5090724;28;20399;-61
2023/01/06 09:31:14;;;;;;;12.40;4.05;;;9.60;99.90;;;;;;5096396;28;20047;-61
2023/01/06 09:33:39;;;;;;;10.52;2.70;;;9.80;99.90;;;;;;5081938;28;20111;-63
2023/01/06 09:36:06;;;;;;;9.07;2.17;;;9.80;99.90;;;;;;5092567;28;20452;-61
2023/01/06 09:38:34;;;;;;;10.43;2.70;;;9.80;99.90;;;;;;5069452;28;20436;-62
2023/01/06 09:41:25;;;;;;;13.88;2.70;;;9.80;99.90;;;;;;5087833;28;20440;-63
2023/01/06 09:44:08;;;;;;;9.48;3.03;;;9.80;99.90;;;;;;5084640;28;20059;-63
2023/01/06 09:46:37;;;;;;;11.02;2.30;;;9.80;99.90;;;;;;5084011;28;20036;-61
2023/01/06 09:49:26;;;;;;;13.93;2.95;;;9.80;99.90;;;;;;5100166;28;20524;-60
2023/01/06 09:51:55;;;;;;;11.68;2.85;;;9.80;99.90;;;;;;5096267;28;20092;-62
2023/01/06 09:54:34;;;;;;;12.98;3.40;;;9.90;99.90;;;;;;5095143;28;20040;-61
2023/01/06 09:57:05;;;;;;;15.90;3.97;;;9.90;99.90;;;;;;5098239;28;20032;-61
2023/01/06 09:59:59;;;;;;;11.68;2.88;;;9.90;99.90;;;;;;5080939;28;20568;-61
2023/01/06 10:02:45;;;;;;;13.48;3.05;;;9.90;99.90;;;;;;5096998;28;20048;-61
2023/01/06 10:05:46;;;;;;;10.13;2.80;;;10.00;99.90;;;;;;5090976;28;20048;-62
2023/01/06 10:08:27;;;;;;;11.70;2.53;;;10.00;99.90;;;;;;5092935;28;20071;-62
2023/01/06 10:11:36;;;;;;;9.50;2.40;;;10.00;99.90;;;;;;5088561;28;20036;-63
2023/01/06 10:14:32;;;;;;;14.20;2.90;;;10.10;99.90;;;;;;5029614;28;20136;-62
2023/01/06 10:17:00;;;;;;;8.73;2.25;;;10.10;99.90;;;;;;5096054;28;20464;-61
2023/01/06 10:19:46;;;;;;;8.93;2.03;;;10.10;99.90;;;;;;5099699;28;20036;-60
2023/01/06 10:22:23;;;;;;;10.43;2.63;;;10.10;99.90;;;;;;5094810;28;20036;-62
2023/01/06 10:25:01;;;;;;;9.93;2.53;;;10.10;99.90;;;;;;5090381;28;20059;-62
2023/01/06 10:27:39;;;;;;;12.70;2.35;;;10.20;99.90;;;;;;5090982;28;20039;-62
2023/01/06 10:30:24;;;;;;;11.88;2.50;;;10.20;99.90;;;;;;5071579;28;20124;-60
2023/01/06 10:32:50;;;;;;;;;;;10.20;99.90;;;;;;5084065;28;20050;-60
2023/01/06 10:35:18;;;;;;;14.48;3.08;;;10.20;99.90;;;;;;5093414;28;20022;-59
2023/01/06 10:37:47;;;;;;;10.40;2.75;;;10.20;99.90;;;;;;5089943;28;20039;-61
2023/01/06 10:40:20;;;;;;;11.63;2.80;;;10.30;99.90;;;;;;5092160;28;20032;-63
2023/01/06 10:43:02;;;;;;;9.65;2.58;;;10.30;99.90;;;;;;5071801;28;20036;-61
2023/01/06 10:45:37;;;;;;;9.98;2.60;;;10.30;99.90;;;;;;5090926;28;20107;-62
2023/01/06 10:48:05;;;;;;;9.40;2.10;;;10.30;99.90;;;;;;5087248;28;20044;-62
2023/01/06 10:50:33;;;;;;;10.57;2.67;;;10.40;99.90;;;;;;5089583;28;20452;-60
2023/01/06 10:53:11;;;;;;;11.07;2.55;;;10.40;99.90;;;;;;5084192;28;20071;-62
2023/01/06 10:55:51;;;;;;;11.63;3.15;;;10.40;99.90;;;;;;5084716;28;20357;-60
2023/01/06 10:58:46;;;;;;;13.40;2.47;;;10.40;99.90;;;;;;5086382;28;20084;-61
2023/01/06 11:01:16;;;;;;;9.23;2.88;;;10.40;99.90;;;;;;5084115;28;20041;-61
2023/01/06 11:03:44;;;;;;;7.68;2.20;;;10.40;99.90;;;;;;5090005;28;20040;-61
2023/01/06 11:06:24;;;;;;;10.75;2.60;;;10.40;99.90;;;;;;5093324;28;20059;-65
2023/01/06 11:08:50;;;;;;;8.80;2.97;;;10.50;99.90;;;;;;5087228;28;20047;-63
2023/01/06 11:11:18;;;;;;;12.00;2.92;;;10.50;99.90;;;;;;5093768;28;20040;-61
2023/01/06 11:13:50;;;;;;;10.65;2.60;;;10.50;99.90;;;;;;5085715;28;20398;-61
2023/01/06 11:16:28;;;;;;;6.38;1.83;;;10.50;99.90;;;;;;5082707;28;20131;-63
2023/01/06 11:18:57;;;;;;;9.32;2.20;;;10.50;99.90;;;;;;5087219;28;20044;-61
2023/01/06 11:21:40;;;;;;;8.40;2.38;;;10.50;99.90;;;;;;5086575;28;20484;-62
2023/01/06 11:24:28;;;;;;;15.75;3.10;;;10.40;99.90;;;;;;5089653;28;20119;-62
2023/01/06 11:26:54;;;;;;;8.10;2.38;;;10.50;99.90;;;;;;5084108;28;20122;-61
2023/01/06 11:29:25;;;;;;;8.75;2.67;;;10.50;99.90;;;;;;5086362;28;20044;-63
2023/01/06 11:31:51;;;;;;;9.05;2.08;;;10.40;99.90;;;;;;5062846;28;20118;-61
2023/01/06 11:34:22;;;;;;;10.77;2.38;;;10.40;99.90;;;;;;5060632;28;20460;-62
2023/01/06 11:36:49;;;;;;;6.75;1.90;;;10.40;99.90;;;;;;5064140;28;20037;-61
2023/01/06 11:39:33;;;;;;;11.30;2.50;;;10.50;99.90;;;;;;5067468;28;20032;-61
2023/01/06 11:42:09;;;;;;;8.05;2.30;;;10.50;99.90;;;;;;5048147;28;20457;-62
2023/01/06 11:44:40;;;;;;;11.00;2.38;;;10.50;99.90;;;;;;5063040;28;20075;-61
2023/01/06 11:47:18;;;;;;;6.75;2.13;;;10.50;99.90;;;;;;5062224;28;20122;-62
2023/01/06 11:49:56;;;;;;;8.05;2.20;;;10.50;99.90;;;;;;5051769;28;20044;-61
2023/01/06 11:52:30;;;;;;;13.43;3.17;;;10.50;99.90;;;;;;5066640;28;20048;-61
2023/01/06 11:55:04;;;;;;;7.50;2.13;;;10.40;99.90;;;;;;5067494;28;20048;-63
2023/01/06 11:57:54;;;;;;;7.38;2.10;;;10.40;99.90;;;;;;5069103;28;20044;-61
2023/01/06 12:00:32;;;;;;;9.75;2.35;;;10.40;99.90;;;;;;5067148;28;20037;-61
2023/01/06 12:03:09;;;;;;;12.45;2.25;;;10.40;99.90;;;;;;5062698;28;20503;-61
2023/01/06 12:06:00;;;;;;;6.15;1.65;;;10.40;99.90;;;;;;5065462;28;20408;-63
2023/01/06 12:08:39;;;;;;;8.90;2.50;;;10.50;99.90;;;;;;5066606;28;20517;-61
2023/01/06 12:11:22;;;;;;;9.20;2.08;;;10.40;99.90;;;;;;5068369;28;20055;-61
2023/01/06 12:13:48;;;;;;;9.13;2.58;;;10.40;99.90;;;;;;5066201;28;20381;-63
2023/01/06 12:16:36;;;;;;;9.88;2.50;;;10.30;99.90;;;;;;5061788;28;20044;-62
2023/01/06 12:19:13;;;;;;;9.57;2.83;;;10.40;99.90;;;;;;5066495;28;20059;-63
2023/01/06 12:21:40;;;;;;;11.75;2.92;;;10.40;99.90;;;;;;5070913;28;20039;-61
2023/01/06 12:24:08;;;;;;;8.70;2.72;;;10.30;99.90;;;;;;5072234;28;20372;-61
2023/01/06 12:26:35;;;;;;;11.95;2.92;;;10.40;99.90;;;;;;5075438;28;20463;-61
2023/01/06 12:29:03;;;;;;;9.48;2.28;;;10.50;99.90;;;;;;5075971;28;20445;-60
2023/01/06 12:32:17;;;;;;;8.48;2.33;;;10.40;99.90;;;;;;5074223;28;20076;-61
2023/01/06 12:34:47;;;;;;;8.80;2.10;;;10.50;99.90;;;;;;5071327;28;20037;-62
2023/01/06 12:37:44;;;;;;;6.63;1.88;;;10.50;99.90;;;;;;5071670;28;20044;-63
2023/01/06 12:40:15;;;;;;;10.07;2.20;;;10.50;99.90;;;;;;5066104;28;20526;-60
2023/01/06 12:43:14;;;;;;;9.30;2.30;;;10.60;99.90;;;;;;5073055;28;20029;-60
2023/01/06 12:45:58;;;;;;;10.70;2.65;;;10.60;99.90;;;;;;5079845;28;20354;-60
2023/01/06 12:48:35;;;;;;;9.43;2.45;;;10.60;99.90;;;;;;5067500;28;20037;-61
2023/01/06 12:51:18;;;;;;;15.63;2.45;;;10.60;99.90;;;;;;5069969;28;20524;-61
2023/01/06 12:53:56;;;;;;;9.63;1.90;;;10.60;99.90;;;;;;5066673;28;20071;-62
2023/01/06 12:56:53;;;;;;;8.75;1.98;;;10.60;99.90;;;;;;5067210;28;20123;-63
2023/01/06 12:59:44;;;;;;;8.48;1.88;;;10.60;99.90;;;;;;5070920;28;20457;-61
2023/01/06 13:02:46;;;;;;;9.07;2.10;;;10.70;99.90;;;;;;5074176;28;20044;-61
2023/01/06 13:05:31;;;;;;;9.32;2.13;;;10.70;99.90;;;;;;5077906;28;20037;-62
2023/01/06 13:08:20;;;;;;;9.93;2.38;;;10.70;99.90;;;;;;5073279;28;20052;-59
2023/01/06 13:10:59;;;;;;;7.68;2.30;;;10.70;99.90;;;;;;5073628;28;20037;-61
2023/01/06 13:13:41;;;;;;;9.25;2.67;;;10.60;99.90;;;;;;5073884;28;20044;-60